sensor_id;sensor_type;location;lat;lon;timestamp;P1;durP1;ratioP1;P2;durP2;ratioP2
68196;SDS011;55019;49.382;11.358;2023-07-29T00:00:47;1.60;;;1.33;;
68196;SDS011;55019;49.382;11.358;2023-07-29T00:03:13;1.67;;;1.30;;
68196;SDS011;55019;49.382;11.358;2023-07-29T00:05:38;1.85;;;1.30;;
68196;SDS011;55019;49.382;11.358;2023-07-29T00:08:05;2.35;;;1.30;;
68196;SDS011;55019;49.382;11.358;2023-07-29T00:10:31;3.30;;;1.65;;
68196;SDS011;55019;49.382;11.358;2023-07-29T00:12:58;3.13;;;1.77;;
68196;SDS011;55019;49.382;11.358;2023-07-29T00:15:24;3.83;;;1.60;;
68196;SDS011;55019;49.382;11.358;2023-07-29T00:17:49;2.97;;;1.67;;
68196;SDS011;55019;49.382;11.358;2023-07-29T00:20:15;2.67;;;1.88;;
68196;SDS011;55019;49.382;11.358;2023-07-29T00:22:41;2.15;;;1.48;;
68196;SDS011;55019;49.382;11.358;2023-07-29T00:25:06;2.33;;;1.83;;
68196;SDS011;55019;49.382;11.358;2023-07-29T00:27:32;2.70;;;1.30;;
68196;SDS011;55019;49.382;11.358;2023-07-29T00:29:58;1.52;;;1.13;;
68196;SDS011;55019;49.382;11.358;2023-07-29T00:32:24;3.13;;;1.67;;
68196;SDS011;55019;49.382;11.358;2023-07-29T00:34:50;2.67;;;1.80;;
68196;SDS011;55019;49.382;11.358;2023-07-29T00:37:15;2.47;;;1.83;;
68196;SDS011;55019;49.382;11.358;2023-07-29T00:39:41;2.53;;;1.65;;
68196;SDS011;55019;49.382;11.358;2023-07-29T00:42:08;1.73;;;1.42;;
68196;SDS011;55019;49.382;11.358;2023-07-29T00:44:34;2.30;;;1.75;;
68196;SDS011;55019;49.382;11.358;2023-07-29T00:47:00;3.28;;;1.88;;
68196;SDS011;55019;49.382;11.358;2023-07-29T00:49:28;1.65;;;1.33;;
68196;SDS011;55019;49.382;11.358;2023-07-29T00:51:54;1.80;;;1.48;;
68196;SDS011;55019;49.382;11.358;2023-07-29T00:54:20;2.10;;;1.55;;
68196;SDS011;55019;49.382;11.358;2023-07-29T00:56:46;2.30;;;1.63;;
68196;SDS011;55019;49.382;11.358;2023-07-29T00:59:11;2.33;;;1.75;;
68196;SDS011;55019;49.382;11.358;2023-07-29T01:01:38;2.10;;;1.45;;
68196;SDS011;55019;49.382;11.358;2023-07-29T01:04:04;1.90;;;1.42;;
68196;SDS011;55019;49.382;11.358;2023-07-29T01:06:34;3.67;;;1.48;;
68196;SDS011;55019;49.382;11.358;2023-07-29T01:09:38;2.47;;;1.65;;
68196;SDS011;55019;49.382;11.358;2023-07-29T01:17:41;1.63;;;1.50;;
68196;SDS011;55019;49.382;11.358;2023-07-29T01:20:09;2.00;;;1.40;;
68196;SDS011;55019;49.382;11.358;2023-07-29T01:22:38;3.72;;;1.90;;
68196;SDS011;55019;49.382;11.358;2023-07-29T01:25:05;2.80;;;1.90;;
68196;SDS011;55019;49.382;11.358;2023-07-29T01:27:31;2.15;;;1.70;;
68196;SDS011;55019;49.382;11.358;2023-07-29T01:29:58;2.83;;;1.98;;
68196;SDS011;55019;49.382;11.358;2023-07-29T01:32:43;2.08;;;1.70;;
68196;SDS011;55019;49.382;11.358;2023-07-29T01:35:36;2.90;;;1.70;;
68196;SDS011;55019;49.382;11.358;2023-07-29T01:38:09;2.42;;;1.75;;
68196;SDS011;55019;49.382;11.358;2023-07-29T01:40:42;2.45;;;1.60;;
68196;SDS011;55019;49.382;11.358;2023-07-29T01:43:09;2.40;;;1.80;;
68196;SDS011;55019;49.382;11.358;2023-07-29T01:45:35;2.60;;;1.40;;
68196;SDS011;55019;49.382;11.358;2023-07-29T01:48:07;1.73;;;1.60;;
68196;SDS011;55019;49.382;11.358;2023-07-29T01:50:33;2.63;;;1.42;;
68196;SDS011;55019;49.382;11.358;2023-07-29T01:53:00;3.15;;;1.80;;
68196;SDS011;55019;49.382;11.358;2023-07-29T01:55:26;2.03;;;1.80;;
68196;SDS011;55019;49.382;11.358;2023-07-29T01:57:53;2.65;;;1.60;;
68196;SDS011;55019;49.382;11.358;2023-07-29T02:00:19;3.47;;;1.90;;
68196;SDS011;55019;49.382;11.358;2023-07-29T02:02:45;4.43;;;1.98;;
68196;SDS011;55019;49.382;11.358;2023-07-29T02:05:11;2.00;;;1.80;;
68196;SDS011;55019;49.382;11.358;2023-07-29T02:07:37;2.70;;;2.00;;
68196;SDS011;55019;49.382;11.358;2023-07-29T02:10:02;3.05;;;1.90;;
68196;SDS011;55019;49.382;11.358;2023-07-29T02:12:28;3.00;;;2.28;;
68196;SDS011;55019;49.382;11.358;2023-07-29T02:14:54;2.65;;;1.58;;
68196;SDS011;55019;49.382;11.358;2023-07-29T02:17:20;4.57;;;2.28;;
68196;SDS011;55019;49.382;11.358;2023-07-29T02:19:46;2.97;;;1.58;;
68196;SDS011;55019;49.382;11.358;2023-07-29T02:22:16;3.72;;;2.15;;
68196;SDS011;55019;49.382;11.358;2023-07-29T02:24:42;3.42;;;2.10;;
68196;SDS011;55019;49.382;11.358;2023-07-29T02:27:08;2.45;;;2.05;;
68196;SDS011;55019;49.382;11.358;2023-07-29T02:29:34;2.40;;;2.05;;
68196;SDS011;55019;49.382;11.358;2023-07-29T02:32:00;1.88;;;1.48;;
68196;SDS011;55019;49.382;11.358;2023-07-29T02:34:26;2.50;;;1.65;;
68196;SDS011;55019;49.382;11.358;2023-07-29T02:36:52;3.35;;;1.90;;
68196;SDS011;55019;49.382;11.358;2023-07-29T02:39:18;2.85;;;2.15;;
68196;SDS011;55019;49.382;11.358;2023-07-29T02:41:43;2.70;;;1.67;;
68196;SDS011;55019;49.382;11.358;2023-07-29T02:44:09;1.95;;;1.40;;
68196;SDS011;55019;49.382;11.358;2023-07-29T02:46:35;2.03;;;1.73;;
68196;SDS011;55019;49.382;11.358;2023-07-29T02:49:01;1.95;;;1.70;;
68196;SDS011;55019;49.382;11.358;2023-07-29T02:51:28;1.85;;;1.42;;
68196;SDS011;55019;49.382;11.358;2023-07-29T02:53:54;2.42;;;1.70;;
68196;SDS011;55019;49.382;11.358;2023-07-29T02:56:19;2.08;;;1.50;;
68196;SDS011;55019;49.382;11.358;2023-07-29T02:58:45;2.45;;;1.35;;
68196;SDS011;55019;49.382;11.358;2023-07-29T03:01:10;1.92;;;1.58;;
68196;SDS011;55019;49.382;11.358;2023-07-29T03:03:37;2.83;;;1.58;;
68196;SDS011;55019;49.382;11.358;2023-07-29T03:06:04;2.05;;;1.55;;
68196;SDS011;55019;49.382;11.358;2023-07-29T03:08:31;2.60;;;1.50;;
68196;SDS011;55019;49.382;11.358;2023-07-29T03:10:57;3.47;;;1.70;;
68196;SDS011;55019;49.382;11.358;2023-07-29T03:13:23;2.55;;;1.50;;
68196;SDS011;55019;49.382;11.358;2023-07-29T03:15:49;1.85;;;1.30;;
68196;SDS011;55019;49.382;11.358;2023-07-29T03:18:15;2.95;;;1.88;;
68196;SDS011;55019;49.382;11.358;2023-07-29T03:20:41;2.45;;;1.80;;
68196;SDS011;55019;49.382;11.358;2023-07-29T03:23:06;2.08;;;1.60;;
68196;SDS011;55019;49.382;11.358;2023-07-29T03:25:32;1.88;;;1.60;;
68196;SDS011;55019;49.382;11.358;2023-07-29T03:27:58;1.92;;;1.30;;
68196;SDS011;55019;49.382;11.358;2023-07-29T03:30:24;4.05;;;1.67;;
68196;SDS011;55019;49.382;11.358;2023-07-29T03:32:51;2.00;;;1.30;;
68196;SDS011;55019;49.382;11.358;2023-07-29T03:35:18;3.03;;;1.67;;
68196;SDS011;55019;49.382;11.358;2023-07-29T03:37:43;1.60;;;1.50;;
68196;SDS011;55019;49.382;11.358;2023-07-29T03:40:09;2.20;;;1.48;;
68196;SDS011;55019;49.382;11.358;2023-07-29T03:42:35;1.45;;;1.20;;
68196;SDS011;55019;49.382;11.358;2023-07-29T03:45:01;2.45;;;1.83;;
68196;SDS011;55019;49.382;11.358;2023-07-29T03:47:27;2.08;;;1.88;;
68196;SDS011;55019;49.382;11.358;2023-07-29T03:49:54;2.83;;;1.52;;
68196;SDS011;55019;49.382;11.358;2023-07-29T03:52:21;2.15;;;1.70;;
68196;SDS011;55019;49.382;11.358;2023-07-29T03:54:47;1.92;;;1.70;;
68196;SDS011;55019;49.382;11.358;2023-07-29T03:57:13;2.45;;;1.60;;
68196;SDS011;55019;49.382;11.358;2023-07-29T03:59:38;3.33;;;1.80;;
68196;SDS011;55019;49.382;11.358;2023-07-29T04:02:04;4.00;;;1.80;;
68196;SDS011;55019;49.382;11.358;2023-07-29T04:04:30;3.08;;;1.90;;
68196;SDS011;55019;49.382;11.358;2023-07-29T04:06:56;3.05;;;1.80;;
68196;SDS011;55019;49.382;11.358;2023-07-29T04:09:21;1.83;;;1.63;;
68196;SDS011;55019;49.382;11.358;2023-07-29T04:11:47;2.65;;;2.20;;
68196;SDS011;55019;49.382;11.358;2023-07-29T04:14:13;2.47;;;1.98;;
68196;SDS011;55019;49.382;11.358;2023-07-29T04:16:39;2.30;;;1.52;;
68196;SDS011;55019;49.382;11.358;2023-07-29T04:19:05;2.20;;;1.80;;
68196;SDS011;55019;49.382;11.358;2023-07-29T04:21:30;2.53;;;1.73;;
68196;SDS011;55019;49.382;11.358;2023-07-29T04:23:56;2.25;;;2.03;;
68196;SDS011;55019;49.382;11.358;2023-07-29T04:26:22;2.10;;;1.90;;
68196;SDS011;55019;49.382;11.358;2023-07-29T04:28:47;2.60;;;1.88;;
68196;SDS011;55019;49.382;11.358;2023-07-29T04:31:13;2.35;;;2.13;;
68196;SDS011;55019;49.382;11.358;2023-07-29T04:33:39;3.25;;;2.03;;
68196;SDS011;55019;49.382;11.358;2023-07-29T04:36:04;2.58;;;1.90;;
68196;SDS011;55019;49.382;11.358;2023-07-29T04:38:31;2.45;;;1.58;;
68196;SDS011;55019;49.382;11.358;2023-07-29T04:40:58;3.50;;;2.45;;
68196;SDS011;55019;49.382;11.358;2023-07-29T04:43:30;6.03;;;2.75;;
68196;SDS011;55019;49.382;11.358;2023-07-29T04:45:57;2.42;;;1.95;;
68196;SDS011;55019;49.382;11.358;2023-07-29T04:48:22;2.80;;;2.17;;
68196;SDS011;55019;49.382;11.358;2023-07-29T04:50:48;2.92;;;1.95;;
68196;SDS011;55019;49.382;11.358;2023-07-29T04:53:14;3.45;;;2.25;;
68196;SDS011;55019;49.382;11.358;2023-07-29T04:55:42;3.05;;;2.10;;
68196;SDS011;55019;49.382;11.358;2023-07-29T04:58:09;4.22;;;2.40;;
68196;SDS011;55019;49.382;11.358;2023-07-29T05:00:35;4.25;;;2.33;;
68196;SDS011;55019;49.382;11.358;2023-07-29T05:03:02;3.42;;;2.80;;
68196;SDS011;55019;49.382;11.358;2023-07-29T05:05:28;3.22;;;2.55;;
68196;SDS011;55019;49.382;11.358;2023-07-29T05:07:54;3.13;;;2.25;;
68196;SDS011;55019;49.382;11.358;2023-07-29T05:10:20;8.95;;;3.25;;
68196;SDS011;55019;49.382;11.358;2023-07-29T05:12:46;3.88;;;2.90;;
68196;SDS011;55019;49.382;11.358;2023-07-29T05:15:11;3.65;;;2.63;;
68196;SDS011;55019;49.382;11.358;2023-07-29T05:17:37;4.75;;;2.53;;
68196;SDS011;55019;49.382;11.358;2023-07-29T05:20:03;4.78;;;2.75;;
68196;SDS011;55019;49.382;11.358;2023-07-29T05:22:29;2.95;;;2.53;;
68196;SDS011;55019;49.382;11.358;2023-07-29T05:24:55;2.92;;;2.58;;
68196;SDS011;55019;49.382;11.358;2023-07-29T05:27:21;2.47;;;2.20;;
68196;SDS011;55019;49.382;11.358;2023-07-29T05:29:46;3.95;;;2.90;;
68196;SDS011;55019;49.382;11.358;2023-07-29T05:32:12;2.65;;;2.22;;
68196;SDS011;55019;49.382;11.358;2023-07-29T05:34:38;3.67;;;2.72;;
68196;SDS011;55019;49.382;11.358;2023-07-29T05:37:03;4.38;;;3.00;;
68196;SDS011;55019;49.382;11.358;2023-07-29T05:39:30;3.10;;;2.33;;
68196;SDS011;55019;49.382;11.358;2023-07-29T05:41:57;4.10;;;2.40;;
68196;SDS011;55019;49.382;11.358;2023-07-29T05:44:23;3.30;;;2.00;;
68196;SDS011;55019;49.382;11.358;2023-07-29T05:46:48;3.03;;;2.28;;
68196;SDS011;55019;49.382;11.358;2023-07-29T05:49:14;3.28;;;2.05;;
68196;SDS011;55019;49.382;11.358;2023-07-29T05:51:41;2.50;;;1.85;;
68196;SDS011;55019;49.382;11.358;2023-07-29T05:54:06;4.32;;;2.05;;
68196;SDS011;55019;49.382;11.358;2023-07-29T05:56:32;3.22;;;2.15;;
68196;SDS011;55019;49.382;11.358;2023-07-29T05:58:58;2.35;;;2.05;;
68196;SDS011;55019;49.382;11.358;2023-07-29T06:01:24;2.70;;;2.03;;
68196;SDS011;55019;49.382;11.358;2023-07-29T06:03:49;2.67;;;1.63;;
68196;SDS011;55019;49.382;11.358;2023-07-29T06:06:15;2.45;;;1.48;;
68196;SDS011;55019;49.382;11.358;2023-07-29T06:08:41;2.65;;;1.80;;
68196;SDS011;55019;49.382;11.358;2023-07-29T06:11:06;3.88;;;2.22;;
68196;SDS011;55019;49.382;11.358;2023-07-29T06:13:32;2.97;;;2.30;;
68196;SDS011;55019;49.382;11.358;2023-07-29T06:15:58;2.67;;;1.73;;
68196;SDS011;55019;49.382;11.358;2023-07-29T06:18:24;2.50;;;1.67;;
68196;SDS011;55019;49.382;11.358;2023-07-29T06:20:50;2.67;;;1.85;;
68196;SDS011;55019;49.382;11.358;2023-07-29T06:23:17;1.88;;;1.55;;
68196;SDS011;55019;49.382;11.358;2023-07-29T06:25:42;2.88;;;1.80;;
68196;SDS011;55019;49.382;11.358;2023-07-29T06:28:09;3.50;;;1.70;;
68196;SDS011;55019;49.382;11.358;2023-07-29T06:30:37;2.70;;;1.60;;
68196;SDS011;55019;49.382;11.358;2023-07-29T06:33:03;2.92;;;2.00;;
68196;SDS011;55019;49.382;11.358;2023-07-29T06:35:28;4.53;;;3.70;;
68196;SDS011;55019;49.382;11.358;2023-07-29T06:37:54;1.83;;;1.70;;
68196;SDS011;55019;49.382;11.358;2023-07-29T06:40:20;1.85;;;1.55;;
68196;SDS011;55019;49.382;11.358;2023-07-29T06:42:46;2.20;;;1.50;;
68196;SDS011;55019;49.382;11.358;2023-07-29T06:45:11;3.00;;;1.65;;
68196;SDS011;55019;49.382;11.358;2023-07-29T06:47:37;2.90;;;1.42;;
68196;SDS011;55019;49.382;11.358;2023-07-29T06:50:03;2.95;;;1.50;;
68196;SDS011;55019;49.382;11.358;2023-07-29T06:52:29;1.80;;;1.50;;
68196;SDS011;55019;49.382;11.358;2023-07-29T06:54:55;4.00;;;1.80;;
68196;SDS011;55019;49.382;11.358;2023-07-29T06:57:20;2.88;;;1.55;;
68196;SDS011;55019;49.382;11.358;2023-07-29T06:59:46;2.03;;;1.58;;
68196;SDS011;55019;49.382;11.358;2023-07-29T07:02:12;3.90;;;1.88;;
68196;SDS011;55019;49.382;11.358;2023-07-29T07:04:37;3.40;;;2.42;;
68196;SDS011;55019;49.382;11.358;2023-07-29T07:07:03;2.75;;;1.83;;
68196;SDS011;55019;49.382;11.358;2023-07-29T07:09:29;5.00;;;2.00;;
68196;SDS011;55019;49.382;11.358;2023-07-29T07:11:54;3.25;;;2.00;;
68196;SDS011;55019;49.382;11.358;2023-07-29T07:14:20;4.60;;;1.90;;
68196;SDS011;55019;49.382;11.358;2023-07-29T07:16:46;3.20;;;1.60;;
68196;SDS011;55019;49.382;11.358;2023-07-29T07:19:11;3.55;;;1.77;;
68196;SDS011;55019;49.382;11.358;2023-07-29T07:21:37;5.18;;;2.50;;
68196;SDS011;55019;49.382;11.358;2023-07-29T07:24:03;2.05;;;1.50;;
68196;SDS011;55019;49.382;11.358;2023-07-29T07:26:28;3.50;;;1.80;;
68196;SDS011;55019;49.382;11.358;2023-07-29T07:28:54;2.63;;;1.77;;
68196;SDS011;55019;49.382;11.358;2023-07-29T07:31:19;3.97;;;2.50;;
68196;SDS011;55019;49.382;11.358;2023-07-29T07:33:45;2.10;;;1.23;;
68196;SDS011;55019;49.382;11.358;2023-07-29T07:36:11;3.28;;;1.65;;
68196;SDS011;55019;49.382;11.358;2023-07-29T07:38:37;2.25;;;1.52;;
68196;SDS011;55019;49.382;11.358;2023-07-29T07:41:02;3.40;;;2.00;;
68196;SDS011;55019;49.382;11.358;2023-07-29T07:43:28;3.40;;;2.08;;
68196;SDS011;55019;49.382;11.358;2023-07-29T07:45:57;2.00;;;1.63;;
68196;SDS011;55019;49.382;11.358;2023-07-29T07:48:24;3.20;;;1.77;;
68196;SDS011;55019;49.382;11.358;2023-07-29T07:50:50;2.58;;;1.90;;
68196;SDS011;55019;49.382;11.358;2023-07-29T07:53:15;2.13;;;1.70;;
68196;SDS011;55019;49.382;11.358;2023-07-29T07:55:41;3.60;;;1.55;;
68196;SDS011;55019;49.382;11.358;2023-07-29T07:58:06;2.33;;;1.60;;
68196;SDS011;55019;49.382;11.358;2023-07-29T08:00:32;3.65;;;2.10;;
68196;SDS011;55019;49.382;11.358;2023-07-29T08:02:58;2.20;;;1.60;;
68196;SDS011;55019;49.382;11.358;2023-07-29T08:05:23;2.67;;;1.70;;
68196;SDS011;55019;49.382;11.358;2023-07-29T08:07:49;3.20;;;2.00;;
68196;SDS011;55019;49.382;11.358;2023-07-29T08:10:15;2.78;;;1.90;;
68196;SDS011;55019;49.382;11.358;2023-07-29T08:12:40;2.22;;;1.80;;
68196;SDS011;55019;49.382;11.358;2023-07-29T08:15:06;1.98;;;1.65;;
68196;SDS011;55019;49.382;11.358;2023-07-29T08:17:32;2.72;;;1.65;;
68196;SDS011;55019;49.382;11.358;2023-07-29T08:19:58;2.22;;;1.70;;
68196;SDS011;55019;49.382;11.358;2023-07-29T08:22:23;3.05;;;1.65;;
68196;SDS011;55019;49.382;11.358;2023-07-29T08:24:49;2.17;;;1.63;;
68196;SDS011;55019;49.382;11.358;2023-07-29T08:27:15;2.15;;;1.40;;
68196;SDS011;55019;49.382;11.358;2023-07-29T08:29:40;2.72;;;1.25;;
68196;SDS011;55019;49.382;11.358;2023-07-29T08:32:06;2.50;;;1.60;;
68196;SDS011;55019;49.382;11.358;2023-07-29T08:34:32;2.65;;;2.05;;
68196;SDS011;55019;49.382;11.358;2023-07-29T08:36:57;3.35;;;2.33;;
68196;SDS011;55019;49.382;11.358;2023-07-29T08:39:23;2.42;;;1.63;;
68196;SDS011;55019;49.382;11.358;2023-07-29T08:44:25;2.45;;;1.60;;
68196;SDS011;55019;49.382;11.358;2023-07-29T08:46:55;3.05;;;2.00;;
68196;SDS011;55019;49.382;11.358;2023-07-29T08:49:22;3.63;;;1.80;;
68196;SDS011;55019;49.382;11.358;2023-07-29T08:51:49;3.50;;;1.95;;
68196;SDS011;55019;49.382;11.358;2023-07-29T08:54:16;3.10;;;1.83;;
68196;SDS011;55019;49.382;11.358;2023-07-29T08:56:42;4.05;;;2.53;;
68196;SDS011;55019;49.382;11.358;2023-07-29T08:59:09;2.58;;;1.58;;
68196;SDS011;55019;49.382;11.358;2023-07-29T09:01:37;3.15;;;1.80;;
68196;SDS011;55019;49.382;11.358;2023-07-29T09:04:03;2.15;;;1.55;;
68196;SDS011;55019;49.382;11.358;2023-07-29T09:06:29;1.33;;;0.98;;
68196;SDS011;55019;49.382;11.358;2023-07-29T09:08:56;1.48;;;1.13;;
68196;SDS011;55019;49.382;11.358;2023-07-29T09:11:24;2.25;;;1.38;;
68196;SDS011;55019;49.382;11.358;2023-07-29T09:13:50;2.60;;;1.60;;
68196;SDS011;55019;49.382;11.358;2023-07-29T09:16:16;1.30;;;1.20;;
68196;SDS011;55019;49.382;11.358;2023-07-29T09:18:41;2.90;;;1.60;;
68196;SDS011;55019;49.382;11.358;2023-07-29T09:21:07;1.98;;;1.58;;
68196;SDS011;55019;49.382;11.358;2023-07-29T09:23:40;3.22;;;1.80;;
68196;SDS011;55019;49.382;11.358;2023-07-29T09:26:07;3.65;;;1.80;;
68196;SDS011;55019;49.382;11.358;2023-07-29T09:28:51;1.50;;;1.17;;
68196;SDS011;55019;49.382;11.358;2023-07-29T09:31:25;3.72;;;1.60;;
68196;SDS011;55019;49.382;11.358;2023-07-29T09:34:11;2.28;;;1.77;;
68196;SDS011;55019;49.382;11.358;2023-07-29T09:36:41;2.10;;;1.30;;
68196;SDS011;55019;49.382;11.358;2023-07-29T09:39:10;2.58;;;1.58;;
68196;SDS011;55019;49.382;11.358;2023-07-29T09:41:38;2.20;;;1.67;;
68196;SDS011;55019;49.382;11.358;2023-07-29T09:44:04;1.92;;;1.65;;
68196;SDS011;55019;49.382;11.358;2023-07-29T09:46:34;1.63;;;1.38;;
68196;SDS011;55019;49.382;11.358;2023-07-29T09:49:04;3.45;;;1.30;;
68196;SDS011;55019;49.382;11.358;2023-07-29T09:51:31;3.08;;;1.42;;
68196;SDS011;55019;49.382;11.358;2023-07-29T09:53:57;4.60;;;2.03;;
68196;SDS011;55019;49.382;11.358;2023-07-29T09:56:27;2.70;;;2.30;;
68196;SDS011;55019;49.382;11.358;2023-07-29T09:58:53;2.17;;;1.83;;
68196;SDS011;55019;49.382;11.358;2023-07-29T10:01:21;3.08;;;1.90;;
68196;SDS011;55019;49.382;11.358;2023-07-29T10:03:46;2.83;;;1.85;;
68196;SDS011;55019;49.382;11.358;2023-07-29T10:06:12;3.08;;;1.70;;
68196;SDS011;55019;49.382;11.358;2023-07-29T10:11:06;2.67;;;2.05;;
68196;SDS011;55019;49.382;11.358;2023-07-29T10:13:33;4.40;;;1.90;;
68196;SDS011;55019;49.382;11.358;2023-07-29T10:16:00;2.50;;;2.08;;
68196;SDS011;55019;49.382;11.358;2023-07-29T10:18:28;2.33;;;1.98;;
68196;SDS011;55019;49.382;11.358;2023-07-29T10:20:56;3.08;;;1.90;;
68196;SDS011;55019;49.382;11.358;2023-07-29T10:23:24;3.13;;;2.53;;
68196;SDS011;55019;49.382;11.358;2023-07-29T10:26:04;3.80;;;2.55;;
68196;SDS011;55019;49.382;11.358;2023-07-29T10:28:31;3.72;;;2.20;;
68196;SDS011;55019;49.382;11.358;2023-07-29T10:30:58;4.38;;;2.25;;
68196;SDS011;55019;49.382;11.358;2023-07-29T10:33:25;2.33;;;2.10;;
68196;SDS011;55019;49.382;11.358;2023-07-29T10:35:52;2.63;;;2.42;;
68196;SDS011;55019;49.382;11.358;2023-07-29T10:38:22;2.75;;;2.33;;
68196;SDS011;55019;49.382;11.358;2023-07-29T10:40:51;2.58;;;1.90;;
68196;SDS011;55019;49.382;11.358;2023-07-29T10:45:50;3.50;;;1.65;;
68196;SDS011;55019;49.382;11.358;2023-07-29T10:53:54;2.88;;;2.42;;
68196;SDS011;55019;49.382;11.358;2023-07-29T10:56:39;4.03;;;1.95;;
68196;SDS011;55019;49.382;11.358;2023-07-29T11:01:53;2.40;;;1.40;;
68196;SDS011;55019;49.382;11.358;2023-07-29T11:04:26;1.58;;;1.40;;
68196;SDS011;55019;49.382;11.358;2023-07-29T11:15:05;2.30;;;1.65;;
68196;SDS011;55019;49.382;11.358;2023-07-29T11:17:47;1.63;;;1.40;;
68196;SDS011;55019;49.382;11.358;2023-07-29T11:20:30;1.77;;;1.40;;
68196;SDS011;55019;49.382;11.358;2023-07-29T11:23:02;2.50;;;1.63;;
68196;SDS011;55019;49.382;11.358;2023-07-29T11:25:29;1.30;;;1.20;;
68196;SDS011;55019;49.382;11.358;2023-07-29T11:27:56;2.80;;;1.63;;
68196;SDS011;55019;49.382;11.358;2023-07-29T11:30:23;3.28;;;1.60;;
68196;SDS011;55019;49.382;11.358;2023-07-29T11:32:51;1.92;;;1.30;;
68196;SDS011;55019;49.382;11.358;2023-07-29T11:35:19;1.92;;;1.15;;
68196;SDS011;55019;49.382;11.358;2023-07-29T11:37:46;1.10;;;1.00;;
68196;SDS011;55019;49.382;11.358;2023-07-29T11:40:13;2.83;;;1.42;;
68196;SDS011;55019;49.382;11.358;2023-07-29T11:42:47;2.47;;;1.38;;
68196;SDS011;55019;49.382;11.358;2023-07-29T11:45:15;1.42;;;1.10;;
68196;SDS011;55019;49.382;11.358;2023-07-29T11:47:41;2.20;;;1.58;;
68196;SDS011;55019;49.382;11.358;2023-07-29T11:50:08;1.73;;;1.00;;
68196;SDS011;55019;49.382;11.358;2023-07-29T11:52:39;1.60;;;1.15;;
68196;SDS011;55019;49.382;11.358;2023-07-29T11:55:06;1.30;;;1.20;;
68196;SDS011;55019;49.382;11.358;2023-07-29T11:57:36;1.35;;;1.25;;
68196;SDS011;55019;49.382;11.358;2023-07-29T12:00:04;2.03;;;1.92;;
68196;SDS011;55019;49.382;11.358;2023-07-29T12:02:35;1.75;;;1.50;;
68196;SDS011;55019;49.382;11.358;2023-07-29T12:05:03;2.88;;;1.42;;
68196;SDS011;55019;49.382;11.358;2023-07-29T12:07:30;2.15;;;1.40;;
68196;SDS011;55019;49.382;11.358;2023-07-29T12:09:57;1.67;;;0.95;;
68196;SDS011;55019;49.382;11.358;2023-07-29T12:12:23;1.33;;;1.23;;
68196;SDS011;55019;49.382;11.358;2023-07-29T12:14:48;1.92;;;1.15;;
68196;SDS011;55019;49.382;11.358;2023-07-29T12:17:14;2.00;;;1.00;;
68196;SDS011;55019;49.382;11.358;2023-07-29T12:19:40;1.00;;;0.90;;
68196;SDS011;55019;49.382;11.358;2023-07-29T12:22:07;1.30;;;0.90;;
68196;SDS011;55019;49.382;11.358;2023-07-29T12:24:35;1.50;;;1.40;;
68196;SDS011;55019;49.382;11.358;2023-07-29T12:27:03;1.40;;;1.15;;
68196;SDS011;55019;49.382;11.358;2023-07-29T12:29:29;0.90;;;0.90;;
68196;SDS011;55019;49.382;11.358;2023-07-29T12:31:58;1.35;;;1.10;;
68196;SDS011;55019;49.382;11.358;2023-07-29T12:34:26;2.10;;;1.23;;
68196;SDS011;55019;49.382;11.358;2023-07-29T12:36:56;1.63;;;1.10;;
68196;SDS011;55019;49.382;11.358;2023-07-29T12:39:26;9.40;;;1.52;;
68196;SDS011;55019;49.382;11.358;2023-07-29T12:41:53;1.73;;;1.25;;
68196;SDS011;55019;49.382;11.358;2023-07-29T12:44:20;1.35;;;1.25;;
68196;SDS011;55019;49.382;11.358;2023-07-29T12:46:48;1.90;;;1.10;;
68196;SDS011;55019;49.382;11.358;2023-07-29T12:49:14;1.33;;;0.98;;
68196;SDS011;55019;49.382;11.358;2023-07-29T12:51:40;1.10;;;1.00;;
68196;SDS011;55019;49.382;11.358;2023-07-29T12:54:06;1.67;;;0.90;;
68196;SDS011;55019;49.382;11.358;2023-07-29T12:56:32;2.28;;;1.10;;
68196;SDS011;55019;49.382;11.358;2023-07-29T12:58:58;0.95;;;0.80;;
68196;SDS011;55019;49.382;11.358;2023-07-29T13:01:25;1.38;;;1.20;;
68196;SDS011;55019;49.382;11.358;2023-07-29T13:03:51;1.08;;;0.85;;
68196;SDS011;55019;49.382;11.358;2023-07-29T13:06:16;0.95;;;0.70;;
68196;SDS011;55019;49.382;11.358;2023-07-29T13:08:42;1.10;;;0.98;;
68196;SDS011;55019;49.382;11.358;2023-07-29T13:11:09;0.88;;;0.85;;
68196;SDS011;55019;49.382;11.358;2023-07-29T13:13:35;1.27;;;0.90;;
68196;SDS011;55019;49.382;11.358;2023-07-29T13:16:01;1.73;;;1.20;;
68196;SDS011;55019;49.382;11.358;2023-07-29T13:18:26;2.65;;;1.83;;
68196;SDS011;55019;49.382;11.358;2023-07-29T13:20:53;1.30;;;0.90;;
68196;SDS011;55019;49.382;11.358;2023-07-29T13:25:45;2.42;;;1.40;;
68196;SDS011;55019;49.382;11.358;2023-07-29T13:28:11;1.60;;;1.30;;
68196;SDS011;55019;49.382;11.358;2023-07-29T13:30:38;1.52;;;0.70;;
68196;SDS011;55019;49.382;11.358;2023-07-29T13:33:07;1.25;;;0.90;;
68196;SDS011;55019;49.382;11.358;2023-07-29T13:35:33;1.77;;;1.00;;
68196;SDS011;55019;49.382;11.358;2023-07-29T13:38:02;1.50;;;1.40;;
68196;SDS011;55019;49.382;11.358;2023-07-29T13:40:28;1.05;;;0.90;;
68196;SDS011;55019;49.382;11.358;2023-07-29T13:42:54;1.23;;;1.10;;
68196;SDS011;55019;49.382;11.358;2023-07-29T13:45:20;2.38;;;1.13;;
68196;SDS011;55019;49.382;11.358;2023-07-29T13:47:46;1.30;;;1.10;;
68196;SDS011;55019;49.382;11.358;2023-07-29T13:50:12;1.17;;;0.60;;
68196;SDS011;55019;49.382;11.358;2023-07-29T13:52:37;0.98;;;0.88;;
68196;SDS011;55019;49.382;11.358;2023-07-29T13:55:04;1.40;;;1.10;;
68196;SDS011;55019;49.382;11.358;2023-07-29T13:57:31;1.55;;;1.30;;
68196;SDS011;55019;49.382;11.358;2023-07-29T13:59:57;1.23;;;1.13;;
68196;SDS011;55019;49.382;11.358;2023-07-29T14:02:22;1.30;;;1.02;;
68196;SDS011;55019;49.382;11.358;2023-07-29T14:04:48;1.30;;;1.00;;
68196;SDS011;55019;49.382;11.358;2023-07-29T14:07:14;1.13;;;0.85;;
68196;SDS011;55019;49.382;11.358;2023-07-29T14:09:41;1.38;;;0.85;;
68196;SDS011;55019;49.382;11.358;2023-07-29T14:12:08;1.65;;;0.98;;
68196;SDS011;55019;49.382;11.358;2023-07-29T14:14:38;1.40;;;0.90;;
68196;SDS011;55019;49.382;11.358;2023-07-29T14:17:04;1.20;;;0.93;;
68196;SDS011;55019;49.382;11.358;2023-07-29T14:19:30;1.42;;;1.33;;
68196;SDS011;55019;49.382;11.358;2023-07-29T14:21:56;1.52;;;1.02;;
68196;SDS011;55019;49.382;11.358;2023-07-29T14:24:22;0.75;;;0.75;;
68196;SDS011;55019;49.382;11.358;2023-07-29T14:26:48;1.08;;;1.02;;
68196;SDS011;55019;49.382;11.358;2023-07-29T14:29:13;0.77;;;0.77;;
68196;SDS011;55019;49.382;11.358;2023-07-29T14:31:39;0.57;;;0.52;;
68196;SDS011;55019;49.382;11.358;2023-07-29T14:34:05;1.80;;;1.05;;
68196;SDS011;55019;49.382;11.358;2023-07-29T14:36:30;0.60;;;0.60;;
68196;SDS011;55019;49.382;11.358;2023-07-29T14:38:56;1.67;;;0.82;;
68196;SDS011;55019;49.382;11.358;2023-07-29T14:41:22;2.70;;;0.93;;
68196;SDS011;55019;49.382;11.358;2023-07-29T14:43:47;0.85;;;0.82;;
68196;SDS011;55019;49.382;11.358;2023-07-29T14:46:13;1.05;;;0.77;;
68196;SDS011;55019;49.382;11.358;2023-07-29T14:48:39;1.33;;;0.93;;
68196;SDS011;55019;49.382;11.358;2023-07-29T14:51:05;0.60;;;0.60;;
68196;SDS011;55019;49.382;11.358;2023-07-29T14:53:30;0.70;;;0.70;;
68196;SDS011;55019;49.382;11.358;2023-07-29T14:55:56;1.10;;;0.90;;
68196;SDS011;55019;49.382;11.358;2023-07-29T14:58:21;1.00;;;0.90;;
68196;SDS011;55019;49.382;11.358;2023-07-29T15:00:48;1.00;;;1.00;;
68196;SDS011;55019;49.382;11.358;2023-07-29T15:03:14;1.27;;;0.80;;